sensor_id;sensor_type;location;lat;lon;timestamp;pressure;altitude;pressure_sealevel;temperature;humidity
64711;BME280;51139;45.626;6.850;2022-11-21T00:00:37;81520.78;;;-2.98;100.00
64711;BME280;51139;45.626;6.850;2022-11-21T00:03:03;81534.91;;;-2.99;100.00
64711;BME280;51139;45.626;6.850;2022-11-21T00:05:29;81528.13;;;-3.02;100.00
64711;BME280;51139;45.626;6.850;2022-11-21T00:07:55;81538.66;;;-2.70;100.00
64711;BME280;51139;45.626;6.850;2022-11-21T00:10:21;81536.56;;;-2.71;100.00
64711;BME280;51139;45.626;6.850;2022-11-21T00:12:47;81543.84;;;-2.95;100.00
64711;BME280;51139;45.626;6.850;2022-11-21T00:15:16;81550.78;;;-3.09;100.00
64711;BME280;51139;45.626;6.850;2022-11-21T00:17:42;81560.06;;;-2.88;100.00
64711;BME280;51139;45.626;6.850;2022-11-21T00:20:07;81558.22;;;-2.69;100.00
64711;BME280;51139;45.626;6.850;2022-11-21T00:22:33;81559.31;;;-2.83;100.00
64711;BME280;51139;45.626;6.850;2022-11-21T00:24:58;81555.31;;;-2.84;100.00
64711;BME280;51139;45.626;6.850;2022-11-21T00:27:24;81555.88;;;-2.97;100.00
64711;BME280;51139;45.626;6.850;2022-11-21T00:29:49;81540.31;;;-2.97;100.00
64711;BME280;51139;45.626;6.850;2022-11-21T00:32:14;81546.78;;;-2.79;100.00
64711;BME280;51139;45.626;6.850;2022-11-21T00:34:40;81547.63;;;-2.96;100.00
64711;BME280;51139;45.626;6.850;2022-11-21T00:37:05;81544.16;;;-3.34;100.00
64711;BME280;51139;45.626;6.850;2022-11-21T00:39:30;81541.84;;;-3.13;100.00
64711;BME280;51139;45.626;6.850;2022-11-21T00:41:56;81540.63;;;-3.37;100.00
64711;BME280;51139;45.626;6.850;2022-11-21T00:44:21;81544.28;;;-3.52;100.00
64711;BME280;51139;45.626;6.850;2022-11-21T00:46:46;81543.34;;;-3.24;100.00
64711;BME280;51139;45.626;6.850;2022-11-21T00:49:12;81535.69;;;-3.04;100.00
64711;BME280;51139;45.626;6.850;2022-11-21T00:51:37;81530.78;;;-3.08;100.00
64711;BME280;51139;45.626;6.850;2022-11-21T00:54:02;81532.97;;;-2.93;100.00
64711;BME280;51139;45.626;6.850;2022-11-21T00:56:28;81525.53;;;-2.78;100.00
64711;BME280;51139;45.626;6.850;2022-11-21T00:58:53;81527.97;;;-2.85;100.00
64711;BME280;51139;45.626;6.850;2022-11-21T01:01:18;81527.59;;;-2.70;100.00
64711;BME280;51139;45.626;6.850;2022-11-21T01:03:44;81522.03;;;-2.80;100.00
64711;BME280;51139;45.626;6.850;2022-11-21T01:06:12;81525.97;;;-2.73;100.00
64711;BME280;51139;45.626;6.850;2022-11-21T01:08:40;81512.78;;;-3.00;100.00
64711;BME280;51139;45.626;6.850;2022-11-21T01:11:10;81516.09;;;-2.75;100.00
64711;BME280;51139;45.626;6.850;2022-11-21T01:13:36;81506.25;;;-2.57;100.00
64711;BME280;51139;45.626;6.850;2022-11-21T01:16:07;81508.84;;;-2.82;100.00
64711;BME280;51139;45.626;6.850;2022-11-21T01:18:33;81500.41;;;-3.13;100.00
64711;BME280;51139;45.626;6.850;2022-11-21T01:21:04;81496.16;;;-2.86;100.00
64711;BME280;51139;45.626;6.850;2022-11-21T01:23:30;81493.84;;;-2.89;100.00
64711;BME280;51139;45.626;6.850;2022-11-21T01:26:08;81488.53;;;-2.78;100.00
64711;BME280;51139;45.626;6.850;2022-11-21T01:28:33;81494.03;;;-2.62;100.00
64711;BME280;51139;45.626;6.850;2022-11-21T01:31:12;81493.63;;;-2.67;100.00
64711;BME280;51139;45.626;6.850;2022-11-21T01:33:39;81486.91;;;-2.56;100.00
64711;BME280;51139;45.626;6.850;2022-11-21T01:36:07;81483.25;;;-2.67;100.00
64711;BME280;51139;45.626;6.850;2022-11-21T01:38:33;81482.75;;;-3.15;100.00
64711;BME280;51139;45.626;6.850;2022-11-21T01:40:59;81490.06;;;-2.88;100.00
64711;BME280;51139;45.626;6.850;2022-11-21T01:43:24;81494.38;;;-2.97;100.00
64711;BME280;51139;45.626;6.850;2022-11-21T01:46:03;81495.84;;;-3.01;100.00
64711;BME280;51139;45.626;6.850;2022-11-21T01:48:31;81502.78;;;-3.15;100.00
64711;BME280;51139;45.626;6.850;2022-11-21T01:51:15;81499.22;;;-3.12;100.00
64711;BME280;51139;45.626;6.850;2022-11-21T01:53:45;81502.66;;;-3.29;100.00
64711;BME280;51139;45.626;6.850;2022-11-21T01:56:12;81502.47;;;-3.06;100.00
64711;BME280;51139;45.626;6.850;2022-11-21T01:58:40;81506.25;;;-2.82;100.00
64711;BME280;51139;45.626;6.850;2022-11-21T02:01:06;81495.47;;;-2.86;100.00
64711;BME280;51139;45.626;6.850;2022-11-21T02:03:33;81497.84;;;-2.88;100.00
64711;BME280;51139;45.626;6.850;2022-11-21T02:06:00;81499.22;;;-2.62;100.00
64711;BME280;51139;45.626;6.850;2022-11-21T02:08:26;81501.91;;;-2.49;100.00
64711;BME280;51139;45.626;6.850;2022-11-21T02:13:59;81494.53;;;-3.14;100.00
64711;BME280;51139;45.626;6.850;2022-11-21T02:16:25;81483.59;;;-3.01;100.00
64711;BME280;51139;45.626;6.850;2022-11-21T02:18:51;81486.75;;;-2.89;100.00
64711;BME280;51139;45.626;6.850;2022-11-21T02:24:13;81489.50;;;-2.56;100.00
64711;BME280;51139;45.626;6.850;2022-11-21T02:26:43;81492.16;;;-2.62;100.00
64711;BME280;51139;45.626;6.850;2022-11-21T02:29:10;81489.38;;;-2.64;100.00
64711;BME280;51139;45.626;6.850;2022-11-21T02:31:36;81482.31;;;-2.69;100.00
64711;BME280;51139;45.626;6.850;2022-11-21T02:34:01;81483.38;;;-2.78;100.00
64711;BME280;51139;45.626;6.850;2022-11-21T02:36:42;81474.81;;;-3.23;100.00
64711;BME280;51139;45.626;6.850;2022-11-21T02:39:12;81483.25;;;-2.67;100.00
64711;BME280;51139;45.626;6.850;2022-11-21T02:41:44;81480.75;;;-2.53;100.00
64711;BME280;51139;45.626;6.850;2022-11-21T02:44:23;81482.34;;;-2.50;100.00
64711;BME280;51139;45.626;6.850;2022-11-21T02:46:51;81472.91;;;-2.72;100.00
64711;BME280;51139;45.626;6.850;2022-11-21T02:49:22;81468.81;;;-2.62;100.00
64711;BME280;51139;45.626;6.850;2022-11-21T02:51:50;81470.19;;;-2.80;100.00
64711;BME280;51139;45.626;6.850;2022-11-21T02:54:15;81474.00;;;-2.62;100.00
64711;BME280;51139;45.626;6.850;2022-11-21T02:56:40;81467.78;;;-2.53;100.00
64711;BME280;51139;45.626;6.850;2022-11-21T02:59:05;81467.91;;;-2.65;100.00
64711;BME280;51139;45.626;6.850;2022-11-21T03:01:31;81468.13;;;-2.24;100.00
64711;BME280;51139;45.626;6.850;2022-11-21T03:03:56;81459.31;;;-2.35;100.00
64711;BME280;51139;45.626;6.850;2022-11-21T03:06:21;81451.44;;;-2.48;100.00
64711;BME280;51139;45.626;6.850;2022-11-21T03:08:47;81451.09;;;-2.39;100.00
64711;BME280;51139;45.626;6.850;2022-11-21T03:11:12;81448.69;;;-2.75;100.00
64711;BME280;51139;45.626;6.850;2022-11-21T03:13:37;81449.63;;;-3.22;100.00
64711;BME280;51139;45.626;6.850;2022-11-21T03:16:03;81458.13;;;-2.78;100.00
64711;BME280;51139;45.626;6.850;2022-11-21T03:18:28;81450.59;;;-3.00;100.00
64711;BME280;51139;45.626;6.850;2022-11-21T03:20:54;81447.22;;;-2.70;100.00
64711;BME280;51139;45.626;6.850;2022-11-21T03:23:19;81439.72;;;-3.24;100.00
64711;BME280;51139;45.626;6.850;2022-11-21T03:25:44;81435.22;;;-4.09;100.00
64711;BME280;51139;45.626;6.850;2022-11-21T03:28:10;81439.63;;;-4.34;100.00
64711;BME280;51139;45.626;6.850;2022-11-21T03:30:35;81448.88;;;-3.78;100.00
64711;BME280;51139;45.626;6.850;2022-11-21T03:33:00;81430.00;;;-3.42;100.00
64711;BME280;51139;45.626;6.850;2022-11-21T03:35:26;81436.72;;;-3.03;100.00
64711;BME280;51139;45.626;6.850;2022-11-21T03:37:51;81425.53;;;-3.17;100.00
64711;BME280;51139;45.626;6.850;2022-11-21T03:40:17;81417.41;;;-3.57;100.00
64711;BME280;51139;45.626;6.850;2022-11-21T03:42:42;81421.75;;;-3.16;100.00
64711;BME280;51139;45.626;6.850;2022-11-21T03:45:08;81412.16;;;-3.21;100.00
64711;BME280;51139;45.626;6.850;2022-11-21T03:47:33;81412.72;;;-2.84;100.00
64711;BME280;51139;45.626;6.850;2022-11-21T03:49:59;81411.66;;;-2.75;100.00
64711;BME280;51139;45.626;6.850;2022-11-21T03:52:24;81416.66;;;-2.78;100.00
64711;BME280;51139;45.626;6.850;2022-11-21T03:54:49;81397.75;;;-2.53;100.00
64711;BME280;51139;45.626;6.850;2022-11-21T03:57:15;81404.56;;;-2.31;100.00
64711;BME280;51139;45.626;6.850;2022-11-21T03:59:40;81405.59;;;-2.78;100.00
64711;BME280;51139;45.626;6.850;2022-11-21T04:02:05;81398.59;;;-2.45;100.00
64711;BME280;51139;45.626;6.850;2022-11-21T04:04:31;81389.53;;;-2.76;100.00
64711;BME280;51139;45.626;6.850;2022-11-21T04:06:56;81394.50;;;-2.79;100.00
64711;BME280;51139;45.626;6.850;2022-11-21T04:09:21;81388.22;;;-3.52;100.00
64711;BME280;51139;45.626;6.850;2022-11-21T04:11:47;81384.50;;;-3.87;100.00
64711;BME280;51139;45.626;6.850;2022-11-21T04:14:12;81384.16;;;-4.03;100.00
64711;BME280;51139;45.626;6.850;2022-11-21T04:16:37;81383.19;;;-4.00;100.00
64711;BME280;51139;45.626;6.850;2022-11-21T04:19:03;81372.75;;;-4.55;100.00
64711;BME280;51139;45.626;6.850;2022-11-21T04:21:28;81370.59;;;-4.15;100.00
64711;BME280;51139;45.626;6.850;2022-11-21T04:23:53;81370.16;;;-4.19;100.00
64711;BME280;51139;45.626;6.850;2022-11-21T04:26:19;81360.69;;;-4.11;100.00
64711;BME280;51139;45.626;6.850;2022-11-21T04:28:44;81354.97;;;-4.03;100.00
64711;BME280;51139;45.626;6.850;2022-11-21T04:31:09;81365.59;;;-3.52;100.00
64711;BME280;51139;45.626;6.850;2022-11-21T04:33:35;81365.94;;;-4.22;100.00
64711;BME280;51139;45.626;6.850;2022-11-21T04:36:00;81368.56;;;-4.64;100.00
64711;BME280;51139;45.626;6.850;2022-11-21T04:38:25;81372.13;;;-4.31;100.00
64711;BME280;51139;45.626;6.850;2022-11-21T04:40:51;81364.88;;;-4.38;100.00
64711;BME280;51139;45.626;6.850;2022-11-21T04:43:16;81365.28;;;-4.28;100.00
64711;BME280;51139;45.626;6.850;2022-11-21T04:45:42;81366.75;;;-4.38;100.00
64711;BME280;51139;45.626;6.850;2022-11-21T04:48:09;81366.06;;;-4.39;100.00
64711;BME280;51139;45.626;6.850;2022-11-21T04:50:34;81370.19;;;-4.25;100.00
64711;BME280;51139;45.626;6.850;2022-11-21T04:53:00;81369.78;;;-4.34;100.00
64711;BME280;51139;45.626;6.850;2022-11-21T04:55:28;81364.25;;;-4.50;100.00
64711;BME280;51139;45.626;6.850;2022-11-21T04:57:54;81364.19;;;-4.44;100.00
64711;BME280;51139;45.626;6.850;2022-11-21T05:00:19;81363.63;;;-4.26;100.00
64711;BME280;51139;45.626;6.850;2022-11-21T05:02:45;81366.53;;;-4.41;100.00
64711;BME280;51139;45.626;6.850;2022-11-21T05:05:12;81366.53;;;-4.41;100.00
64711;BME280;51139;45.626;6.850;2022-11-21T05:07:38;81360.19;;;-4.40;100.00
64711;BME280;51139;45.626;6.850;2022-11-21T05:10:07;81359.78;;;-4.49;100.00
64711;BME280;51139;45.626;6.850;2022-11-21T05:12:32;81355.94;;;-4.73;100.00
64711;BME280;51139;45.626;6.850;2022-11-21T05:15:17;81346.69;;;-4.63;100.00
64711;BME280;51139;45.626;6.850;2022-11-21T05:17:42;81351.78;;;-4.46;100.00
64711;BME280;51139;45.626;6.850;2022-11-21T05:20:08;81346.97;;;-4.66;100.00
64711;BME280;51139;45.626;6.850;2022-11-21T05:22:34;81344.19;;;-4.74;100.00
64711;BME280;51139;45.626;6.850;2022-11-21T05:24:59;81339.91;;;-4.66;100.00
64711;BME280;51139;45.626;6.850;2022-11-21T05:27:24;81338.94;;;-4.63;100.00
64711;BME280;51139;45.626;6.850;2022-11-21T05:29:50;81342.81;;;-4.39;100.00
64711;BME280;51139;45.626;6.850;2022-11-21T05:32:15;81337.75;;;-3.70;100.00
64711;BME280;51139;45.626;6.850;2022-11-21T05:34:40;81349.44;;;-4.19;100.00
64711;BME280;51139;45.626;6.850;2022-11-21T05:37:06;81350.28;;;-3.74;100.00
64711;BME280;51139;45.626;6.850;2022-11-21T05:39:31;81340.78;;;-3.91;100.00
64711;BME280;51139;45.626;6.850;2022-11-21T05:41:57;81337.53;;;-4.28;100.00
64711;BME280;51139;45.626;6.850;2022-11-21T05:44:22;81340.16;;;-4.03;100.00
64711;BME280;51139;45.626;6.850;2022-11-21T05:46:47;81344.91;;;-4.07;100.00
64711;BME280;51139;45.626;6.850;2022-11-21T05:49:13;81352.00;;;-4.44;100.00
64711;BME280;51139;45.626;6.850;2022-11-21T05:51:38;81354.94;;;-4.64;100.00
64711;BME280;51139;45.626;6.850;2022-11-21T05:54:04;81358.66;;;-4.23;100.00
64711;BME280;51139;45.626;6.850;2022-11-21T05:56:30;81351.78;;;-4.15;100.00
64711;BME280;51139;45.626;6.850;2022-11-21T05:58:56;81346.56;;;-4.40;100.00
64711;BME280;51139;45.626;6.850;2022-11-21T06:01:22;81337.16;;;-4.43;100.00
64711;BME280;51139;45.626;6.850;2022-11-21T06:04:07;81338.41;;;-4.50;100.00
64711;BME280;51139;45.626;6.850;2022-11-21T06:06:33;81348.66;;;-4.38;100.00
64711;BME280;51139;45.626;6.850;2022-11-21T06:08:59;81335.75;;;-4.75;100.00
64711;BME280;51139;45.626;6.850;2022-11-21T06:11:24;81339.81;;;-4.49;100.00
64711;BME280;51139;45.626;6.850;2022-11-21T06:13:51;81344.91;;;-4.43;100.00
64711;BME280;51139;45.626;6.850;2022-11-21T06:16:17;81336.16;;;-4.34;100.00
64711;BME280;51139;45.626;6.850;2022-11-21T06:18:46;81335.38;;;-4.54;100.00
64711;BME280;51139;45.626;6.850;2022-11-21T06:23:39;81325.72;;;-4.90;100.00
64711;BME280;51139;45.626;6.850;2022-11-21T06:26:06;81310.66;;;-4.86;100.00
64711;BME280;51139;45.626;6.850;2022-11-21T06:28:37;81306.22;;;-4.85;100.00
64711;BME280;51139;45.626;6.850;2022-11-21T06:31:04;81306.59;;;-4.75;100.00
64711;BME280;51139;45.626;6.850;2022-11-21T06:33:29;81300.38;;;-4.55;100.00
64711;BME280;51139;45.626;6.850;2022-11-21T06:35:55;81286.69;;;-4.50;100.00
64711;BME280;51139;45.626;6.850;2022-11-21T06:38:20;81292.66;;;-4.30;100.00
64711;BME280;51139;45.626;6.850;2022-11-21T06:40:45;81285.88;;;-4.08;100.00
64711;BME280;51139;45.626;6.850;2022-11-21T06:43:11;81283.41;;;-3.95;99.86
64711;BME280;51139;45.626;6.850;2022-11-21T06:45:36;81292.72;;;-4.11;100.00
64711;BME280;51139;45.626;6.850;2022-11-21T06:48:01;81289.63;;;-4.10;98.70
64711;BME280;51139;45.626;6.850;2022-11-21T06:50:28;81286.50;;;-4.02;96.40
64711;BME280;51139;45.626;6.850;2022-11-21T06:52:58;81278.25;;;-3.95;95.18
64711;BME280;51139;45.626;6.850;2022-11-21T06:55:24;81289.91;;;-4.13;96.76
64711;BME280;51139;45.626;6.850;2022-11-21T06:57:50;81269.56;;;-4.22;98.93
64711;BME280;51139;45.626;6.850;2022-11-21T07:00:16;81266.69;;;-3.69;96.18
64711;BME280;51139;45.626;6.850;2022-11-21T07:02:41;81264.94;;;-3.61;92.95
64711;BME280;51139;45.626;6.850;2022-11-21T07:05:07;81268.53;;;-3.45;91.83
64711;BME280;51139;45.626;6.850;2022-11-21T07:07:32;81264.56;;;-3.46;92.81
64711;BME280;51139;45.626;6.850;2022-11-21T07:09:58;81271.19;;;-3.12;88.46
64711;BME280;51139;45.626;6.850;2022-11-21T07:12:23;81273.34;;;-3.55;90.94
64711;BME280;51139;45.626;6.850;2022-11-21T07:15:08;81257.88;;;-3.41;89.98
64711;BME280;51139;45.626;6.850;2022-11-21T07:17:33;81257.06;;;-3.30;88.51
64711;BME280;51139;45.626;6.850;2022-11-21T07:19:59;81254.41;;;-3.25;86.27
64711;BME280;51139;45.626;6.850;2022-11-21T07:22:24;81262.59;;;-3.20;85.08
64711;BME280;51139;45.626;6.850;2022-11-21T07:24:49;81269.25;;;-3.25;87.52
64711;BME280;51139;45.626;6.850;2022-11-21T07:27:15;81272.31;;;-3.46;91.14
64711;BME280;51139;45.626;6.850;2022-11-21T07:29:40;81270.13;;;-3.61;93.76
64711;BME280;51139;45.626;6.850;2022-11-21T07:32:05;81269.19;;;-3.39;91.90
64711;BME280;51139;45.626;6.850;2022-11-21T07:34:31;81268.31;;;-3.28;92.69
64711;BME280;51139;45.626;6.850;2022-11-21T07:36:56;81261.91;;;-3.02;91.78
64711;BME280;51139;45.626;6.850;2022-11-21T07:39:21;81257.91;;;-2.51;88.94
64711;BME280;51139;45.626;6.850;2022-11-21T07:41:47;81256.41;;;-2.14;82.30
64711;BME280;51139;45.626;6.850;2022-11-21T07:44:12;81261.06;;;-1.66;78.30
64711;BME280;51139;45.626;6.850;2022-11-21T07:46:37;81255.06;;;-1.88;76.22
64711;BME280;51139;45.626;6.850;2022-11-21T07:49:03;81252.44;;;-2.01;79.26
64711;BME280;51139;45.626;6.850;2022-11-21T07:51:28;81236.00;;;-2.23;80.76
64711;BME280;51139;45.626;6.850;2022-11-21T07:53:53;81238.19;;;-2.27;82.87
64711;BME280;51139;45.626;6.850;2022-11-21T07:56:19;81237.00;;;-2.26;83.59
64711;BME280;51139;45.626;6.850;2022-11-21T07:58:44;81229.72;;;-2.41;84.28
64711;BME280;51139;45.626;6.850;2022-11-21T08:01:09;81231.91;;;-2.32;85.47
64711;BME280;51139;45.626;6.850;2022-11-21T08:03:35;81222.69;;;-2.14;83.19
64711;BME280;51139;45.626;6.850;2022-11-21T08:06:01;81220.28;;;-1.98;78.46
64711;BME280;51139;45.626;6.850;2022-11-21T08:08:28;81215.41;;;-1.88;79.69
64711;BME280;51139;45.626;6.850;2022-11-21T08:10:53;81213.19;;;-1.98;81.09
64711;BME280;51139;45.626;6.850;2022-11-21T08:13:18;81211.50;;;-1.95;80.48
64711;BME280;51139;45.626;6.850;2022-11-21T08:15:44;81211.59;;;-1.87;81.98
64711;BME280;51139;45.626;6.850;2022-11-21T08:18:11;81210.50;;;-1.65;78.19
64711;BME280;51139;45.626;6.850;2022-11-21T08:20:37;81201.50;;;-1.24;67.47
64711;BME280;51139;45.626;6.850;2022-11-21T08:23:03;81201.72;;;-1.00;67.79
64711;BME280;51139;45.626;6.850;2022-11-21T08:25:30;81198.59;;;-0.85;68.43
64711;BME280;51139;45.626;6.850;2022-11-21T08:27:56;81197.91;;;-0.65;65.91
64711;BME280;51139;45.626;6.850;2022-11-21T08:30:21;81193.81;;;-0.39;65.15
64711;BME280;51139;45.626;6.850;2022-11-21T08:32:46;81197.97;;;-0.15;62.29
64711;BME280;51139;45.626;6.850;2022-11-21T08:35:12;81187.56;;;-0.15;58.22
64711;BME280;51139;45.626;6.850;2022-11-21T08:37:37;81182.50;;;0.01;54.92
64711;BME280;51139;45.626;6.850;2022-11-21T08:40:03;81178.94;;;0.49;59.89
64711;BME280;51139;45.626;6.850;2022-11-21T08:42:28;81166.47;;;0.55;59.02
64711;BME280;51139;45.626;6.850;2022-11-21T08:44:54;81167.81;;;0.85;60.87
64711;BME280;51139;45.626;6.850;2022-11-21T08:47:19;81163.84;;;0.92;58.97
64711;BME280;51139;45.626;6.850;2022-11-21T08:49:45;81157.88;;;0.76;54.81
64711;BME280;51139;45.626;6.850;2022-11-21T08:52:10;81148.75;;;0.98;57.43
64711;BME280;51139;45.626;6.850;2022-11-21T08:54:36;81145.28;;;0.95;46.67
64711;BME280;51139;45.626;6.850;2022-11-21T08:57:01;81139.13;;;0.77;56.53
64711;BME280;51139;45.626;6.850;2022-11-21T08:59:27;81143.69;;;0.92;59.24
64711;BME280;51139;45.626;6.850;2022-11-21T09:01:52;81136.03;;;0.86;61.32
64711;BME280;51139;45.626;6.850;2022-11-21T09:04:17;81126.91;;;1.24;56.19
64711;BME280;51139;45.626;6.850;2022-11-21T09:06:44;81126.97;;;2.17;47.82
64711;BME280;51139;45.626;6.850;2022-11-21T09:09:09;81132.16;;;2.48;60.33
64711;BME280;51139;45.626;6.850;2022-11-21T09:11:35;81127.66;;;2.02;54.80
64711;BME280;51139;45.626;6.850;2022-11-21T09:14:01;81118.09;;;2.05;47.21
64711;BME280;51139;45.626;6.850;2022-11-21T09:16:45;81102.25;;;2.03;44.59
64711;BME280;51139;45.626;6.850;2022-11-21T09:19:29;81102.72;;;2.48;44.61
64711;BME280;51139;45.626;6.850;2022-11-21T09:21:55;81095.34;;;3.11;42.24
64711;BME280;51139;45.626;6.850;2022-11-21T09:24:20;81096.75;;;3.12;42.50
64711;BME280;51139;45.626;6.850;2022-11-21T09:26:46;81085.75;;;3.46;40.39
64711;BME280;51139;45.626;6.850;2022-11-21T09:29:11;81087.22;;;3.90;38.44
64711;BME280;51139;45.626;6.850;2022-11-21T09:31:40;81084.63;;;4.08;40.41
64711;BME280;51139;45.626;6.850;2022-11-21T09:34:05;81084.41;;;4.74;40.06
64711;BME280;51139;45.626;6.850;2022-11-21T09:36:30;81085.41;;;4.79;38.38
64711;BME280;51139;45.626;6.850;2022-11-21T09:38:56;81076.78;;;4.68;40.38
64711;BME280;51139;45.626;6.850;2022-11-21T09:41:44;81081.34;;;3.82;44.24
64711;BME280;51139;45.626;6.850;2022-11-21T09:47:14;81071.94;;;3.79;46.34
64711;BME280;51139;45.626;6.850;2022-11-21T09:49:42;81066.59;;;4.73;46.81
64711;BME280;51139;45.626;6.850;2022-11-21T09:52:12;81060.84;;;3.88;47.43
64711;BME280;51139;45.626;6.850;2022-11-21T09:54:46;81054.63;;;2.84;45.74
64711;BME280;51139;45.626;6.850;2022-11-21T09:57:16;81055.78;;;3.06;39.70
64711;BME280;51139;45.626;6.850;2022-11-21T09:59:43;81048.81;;;1.81;41.68
64711;BME280;51139;45.626;6.850;2022-11-21T10:02:15;81048.31;;;1.43;42.82
64711;BME280;51139;45.626;6.850;2022-11-21T10:04:41;81038.75;;;1.38;42.70
64711;BME280;51139;45.626;6.850;2022-11-21T10:07:24;81036.81;;;1.54;45.38
64711;BME280;51139;45.626;6.850;2022-11-21T10:23:27;81019.75;;;1.69;47.55
64711;BME280;51139;45.626;6.850;2022-11-21T10:26:12;81012.38;;;1.98;45.86
64711;BME280;51139;45.626;6.850;2022-11-21T10:28:47;81000.03;;;1.99;44.62
64711;BME280;51139;45.626;6.850;2022-11-21T10:31:16;80994.09;;;1.98;43.07
64711;BME280;51139;45.626;6.850;2022-11-21T10:33:42;80985.81;;;2.33;41.67
64711;BME280;51139;45.626;6.850;2022-11-21T10:38:37;80964.34;;;1.94;38.80
64711;BME280;51139;45.626;6.850;2022-11-21T10:43:43;80963.69;;;1.78;36.22
64711;BME280;51139;45.626;6.850;2022-11-21T10:46:28;80954.97;;;1.83;34.15
64711;BME280;51139;45.626;6.850;2022-11-21T10:49:02;80958.47;;;1.85;35.70
64711;BME280;51139;45.626;6.850;2022-11-21T10:51:49;80952.91;;;1.81;39.13
64711;BME280;51139;45.626;6.850;2022-11-21T10:54:17;80941.72;;;1.88;39.64
64711;BME280;51139;45.626;6.850;2022-11-21T10:57:09;80934.28;;;1.77;44.06
64711;BME280;51139;45.626;6.850;2022-11-21T10:59:37;80927.16;;;2.18;44.28
64711;BME280;51139;45.626;6.850;2022-11-21T11:02:22;80927.81;;;2.27;46.35
64711;BME280;51139;45.626;6.850;2022-11-21T11:04:48;80918.78;;;2.20;45.40
64711;BME280;51139;45.626;6.850;2022-11-21T11:07:24;80913.06;;;2.80;52.34
64711;BME280;51139;45.626;6.850;2022-11-21T11:09:50;80909.50;;;2.93;45.64
64711;BME280;51139;45.626;6.850;2022-11-21T11:15:24;80889.91;;;3.45;46.84
64711;BME280;51139;45.626;6.850;2022-11-21T11:17:56;80882.91;;;3.47;45.50
64711;BME280;51139;45.626;6.850;2022-11-21T11:20:39;80865.97;;;3.66;45.87
64711;BME280;51139;45.626;6.850;2022-11-21T11:25:57;80856.50;;;3.35;46.25
64711;BME280;51139;45.626;6.850;2022-11-21T11:28:23;80839.03;;;3.56;46.30
64711;BME280;51139;45.626;6.850;2022-11-21T11:30:49;80837.16;;;3.66;44.52
64711;BME280;51139;45.626;6.850;2022-11-21T11:36:06;80832.72;;;3.59;43.89
64711;BME280;51139;45.626;6.850;2022-11-21T11:38:33;80821.38;;;3.74;42.87
64711;BME280;51139;45.626;6.850;2022-11-21T11:41:04;80814.22;;;3.74;48.00
64711;BME280;51139;45.626;6.850;2022-11-21T11:43:58;80801.41;;;3.78;51.22
64711;BME280;51139;45.626;6.850;2022-11-21T11:47:07;80788.91;;;3.59;42.72
64711;BME280;51139;45.626;6.850;2022-11-21T11:50:18;80785.13;;;3.53;56.64
64711;BME280;51139;45.626;6.850;2022-11-21T11:55:23;80778.75;;;3.91;61.37
64711;BME280;51139;45.626;6.850;2022-11-21T11:57:51;80766.88;;;3.90;61.12
64711;BME280;51139;45.626;6.850;2022-11-21T12:00:26;80759.44;;;3.86;56.96
64711;BME280;51139;45.626;6.850;2022-11-21T12:03:12;80741.22;;;3.88;58.65
64711;BME280;51139;45.626;6.850;2022-11-21T12:05:51;80740.94;;;4.12;60.41
64711;BME280;51139;45.626;6.850;2022-11-21T12:08:24;80725.50;;;4.16;58.38
64711;BME280;51139;45.626;6.850;2022-11-21T12:10:58;80723.47;;;3.24;65.66
64711;BME280;51139;45.626;6.850;2022-11-21T12:13:46;80725.22;;;2.69;57.31
64711;BME280;51139;45.626;6.850;2022-11-21T12:16:13;80704.91;;;2.59;54.02
64711;BME280;51139;45.626;6.850;2022-11-21T12:18:50;80706.53;;;2.55;53.10
64711;BME280;51139;45.626;6.850;2022-11-21T12:21:16;80692.47;;;2.68;44.36
64711;BME280;51139;45.626;6.850;2022-11-21T12:23:49;80684.47;;;3.01;44.40
64711;BME280;51139;45.626;6.850;2022-11-21T12:32:18;80650.69;;;2.95;43.48
64711;BME280;51139;45.626;6.850;2022-11-21T12:37:40;80635.59;;;3.03;40.42
64711;BME280;51139;45.626;6.850;2022-11-21T12:40:27;80636.78;;;2.75;38.59
64711;BME280;51139;45.626;6.850;2022-11-21T12:45:55;80614.41;;;3.27;40.71
64711;BME280;51139;45.626;6.850;2022-11-21T12:57:14;80588.16;;;3.72;40.20
64711;BME280;51139;45.626;6.850;2022-11-21T12:59:51;80597.44;;;3.92;40.01
64711;BME280;51139;45.626;6.850;2022-11-21T13:02:27;80589.19;;;3.59;39.69
64711;BME280;51139;45.626;6.850;2022-11-21T13:04:56;80593.09;;;3.68;41.62
64711;BME280;51139;45.626;6.850;2022-11-21T13:07:24;80578.19;;;3.70;40.60
64711;BME280;51139;45.626;6.850;2022-11-21T13:09:54;80581.00;;;3.82;42.82
64711;BME280;51139;45.626;6.850;2022-11-21T13:12:42;80571.09;;;3.90;42.72
64711;BME280;51139;45.626;6.850;2022-11-21T13:15:14;80575.81;;;4.02;44.55
64711;BME280;51139;45.626;6.850;2022-11-21T13:17:50;80573.91;;;4.02;45.48
64711;BME280;51139;45.626;6.850;2022-11-21T13:20:30;80578.69;;;3.86;41.82
64711;BME280;51139;45.626;6.850;2022-11-21T13:23:00;80562.97;;;3.96;48.68
64711;BME280;51139;45.626;6.850;2022-11-21T13:30:54;80549.19;;;3.48;43.87
64711;BME280;51139;45.626;6.850;2022-11-21T13:36:09;80543.88;;;3.66;47.77
64711;BME280;51139;45.626;6.850;2022-11-21T13:47:02;80539.28;;;3.57;40.74
64711;BME280;51139;45.626;6.850;2022-11-21T13:49:32;80538.44;;;3.44;36.76
64711;BME280;51139;45.626;6.850;2022-11-21T13:52:06;80539.38;;;3.39;35.70
64711;BME280;51139;45.626;6.850;2022-11-21T14:02:32;80531.53;;;3.39;42.40
64711;BME280;51139;45.626;6.850;2022-11-21T14:07:46;80529.53;;;3.67;42.10
64711;BME280;51139;45.626;6.850;2022-11-21T14:12:50;80542.78;;;3.69;42.67
64711;BME280;51139;45.626;6.850;2022-11-21T14:17:52;80542.63;;;3.67;43.01
64711;BME280;51139;45.626;6.850;2022-11-21T14:20:27;80545.25;;;3.57;40.83
64711;BME280;51139;45.626;6.850;2022-11-21T14:23:04;80543.00;;;3.54;44.12
64711;BME280;51139;45.626;6.850;2022-11-21T14:25:50;80535.31;;;3.18;47.74
64711;BME280;51139;45.626;6.850;2022-11-21T14:28:25;80539.41;;;2.84;51.26
64711;BME280;51139;45.626;6.850;2022-11-21T14:30:58;80529.78;;;2.87;52.55
64711;BME280;51139;45.626;6.850;2022-11-21T14:38:43;80530.75;;;2.91;53.07
64711;BME280;51139;45.626;6.850;2022-11-21T14:41:25;80522.69;;;3.07;50.71
64711;BME280;51139;45.626;6.850;2022-11-21T14:46:45;80535.00;;;2.59;55.49